createdAt,value
2024-03-25T00:00:14.460Z,98141.48
2024-03-25T00:02:41.872Z,98147.05
2024-03-25T00:05:14.948Z,98143.05
2024-03-25T00:07:42.008Z,98140.83
2024-03-25T00:10:09.103Z,98144.91
2024-03-25T00:12:36.249Z,98136.88
2024-03-25T00:15:03.652Z,98130.88
2024-03-25T00:17:31.298Z,98129.54
2024-03-25T00:19:58.716Z,98124.59
2024-03-25T00:22:26.082Z,98118.05
2024-03-25T00:24:53.076Z,98124.29
2024-03-25T00:27:19.941Z,98122.29
2024-03-25T00:29:46.676Z,98118.34
2024-03-25T00:32:15.512Z,98115.41
2024-03-25T00:34:42.216Z,98112.86
2024-03-25T00:37:09.497Z,98111.67
2024-03-25T00:39:37.420Z,98109.73
2024-03-25T00:42:05.102Z,98109.31
2024-03-25T00:44:31.837Z,98108.36
2024-03-25T00:46:58.598Z,98107.52
2024-03-25T00:49:26.240Z,98103.39
2024-03-25T00:51:52.931Z,98106.17
2024-03-25T00:54:19.724Z,98111.92
2024-03-25T00:56:46.920Z,98112.34
2024-03-25T00:59:13.676Z,98116.48
2024-03-25T01:01:40.573Z,98121.30
2024-03-25T01:04:08.383Z,98112.08
2024-03-25T01:06:35.157Z,98107.26
2024-03-25T01:09:02.222Z,98098.33
2024-03-25T01:11:29.097Z,98096.77
2024-03-25T01:13:56.144Z,98089.95
2024-03-25T01:16:22.824Z,98087.64
2024-03-25T01:18:49.564Z,98081.84
2024-03-25T01:21:16.253Z,98085.80
2024-03-25T01:23:42.919Z,98092.77
2024-03-25T01:26:09.610Z,98089.82
2024-03-25T01:28:36.489Z,98086.58
2024-03-25T01:31:03.835Z,98081.39
2024-03-25T01:33:30.759Z,98070.48
2024-03-25T01:35:57.496Z,98063.73
2024-03-25T01:38:24.092Z,98061.19
2024-03-25T01:40:50.765Z,98062.17
2024-03-25T01:43:17.581Z,98064.42
2024-03-25T01:45:44.196Z,98074.10
2024-03-25T01:48:13.126Z,98079.71
2024-03-25T01:50:43.154Z,98086.11
2024-03-25T01:53:10.254Z,98083.73
2024-03-25T01:55:37.364Z,98088.84
2024-03-25T01:58:04.472Z,98090.54
2024-03-25T02:00:32.429Z,98092.27
2024-03-25T02:02:59.210Z,98091.20
2024-03-25T02:05:26.262Z,98090.13
2024-03-25T02:07:53.026Z,98087.77
2024-03-25T02:10:21.290Z,98088.42
2024-03-25T02:12:48.072Z,98089.57
2024-03-25T02:15:14.816Z,98095.95
2024-03-25T02:17:42.075Z,98101.69
2024-03-25T02:20:09.695Z,98098.02
2024-03-25T02:22:39.572Z,98097.39
2024-03-25T02:25:09.016Z,98090.82
2024-03-25T02:27:38.814Z,98088.23
2024-03-25T02:30:11.487Z,98088.40
2024-03-25T02:32:38.438Z,98097.16
2024-03-25T02:35:07.661Z,98098.98
2024-03-25T02:37:34.442Z,98096.59
2024-03-25T02:40:01.805Z,98101.15
2024-03-25T02:42:31.870Z,98101.35
2024-03-25T02:44:58.833Z,98107.83
2024-03-25T02:47:25.933Z,98113.82
2024-03-25T02:49:52.727Z,98117.65
2024-03-25T02:52:20.167Z,98113.97
2024-03-25T02:54:46.874Z,98109.70
2024-03-25T02:57:13.844Z,98116.22
2024-03-25T02:59:40.824Z,98121.45
2024-03-25T03:02:08.100Z,98126.23
2024-03-25T03:04:34.788Z,98127.66
2024-03-25T03:07:01.467Z,98131.52
2024-03-25T03:09:28.488Z,98139.67
2024-03-25T03:11:55.308Z,98146.50
2024-03-25T03:14:22.301Z,98148.40
2024-03-25T03:16:49.966Z,98165.77
2024-03-25T03:19:16.667Z,98167.45
2024-03-25T03:21:43.583Z,98177.95
2024-03-25T03:24:10.271Z,98171.23
2024-03-25T03:26:36.998Z,98151.29
2024-03-25T03:29:03.831Z,98129.95
2024-03-25T03:31:30.891Z,98127.17
2024-03-25T03:33:57.668Z,98131.71
2024-03-25T03:36:24.442Z,98131.91
2024-03-25T03:38:51.773Z,98133.83
2024-03-25T03:41:18.768Z,98134.23
2024-03-25T03:43:45.712Z,98138.27
2024-03-25T03:46:12.531Z,98144.18
2024-03-25T03:48:39.573Z,98149.75
2024-03-25T03:51:07.024Z,98151.15
2024-03-25T03:53:34.317Z,98153.93
2024-03-25T03:56:02.550Z,98153.16
2024-03-25T03:58:29.791Z,98153.95
2024-03-25T04:00:56.569Z,98151.92
2024-03-25T04:03:23.317Z,98154.52
2024-03-25T04:05:50.271Z,98150.64
2024-03-25T04:08:17.006Z,98148.05
2024-03-25T04:10:44.613Z,98142.90
2024-03-25T04:13:14.462Z,98140.63
2024-03-25T04:15:42.569Z,98136.77
2024-03-25T04:18:09.554Z,98139.52
2024-03-25T04:20:39.799Z,98139.00
2024-03-25T04:23:07.709Z,98138.42
2024-03-25T04:25:35.203Z,98132.48
2024-03-25T04:28:02.095Z,98137.29
2024-03-25T04:30:29.066Z,98141.83
2024-03-25T04:32:56.037Z,98141.08
2024-03-25T04:35:22.808Z,98139.48
2024-03-25T04:37:49.621Z,98138.52
2024-03-25T04:40:19.276Z,98128.42
2024-03-25T04:42:46.029Z,98121.52
2024-03-25T04:45:14.332Z,98113.33
2024-03-25T04:47:41.313Z,98111.77
2024-03-25T04:50:09.684Z,98113.42
2024-03-25T04:52:36.591Z,98113.81
2024-03-25T04:55:03.964Z,98121.45
2024-03-25T04:57:31.011Z,98121.54
2024-03-25T04:59:58.704Z,98116.02
2024-03-25T05:02:25.522Z,98116.09
2024-03-25T05:04:52.998Z,98114.13
2024-03-25T05:07:19.816Z,98109.40
2024-03-25T05:09:46.681Z,98107.88
2024-03-25T05:12:13.417Z,98106.09
2024-03-25T05:14:40.260Z,98109.55
2024-03-25T05:17:08.841Z,98113.84
2024-03-25T05:19:35.617Z,98117.00
2024-03-25T05:22:02.795Z,98114.52
2024-03-25T05:24:29.985Z,98113.62
2024-03-25T05:26:56.699Z,98114.44
2024-03-25T05:29:23.663Z,98116.51
2024-03-25T05:32:01.060Z,98117.35
2024-03-25T05:34:28.368Z,98115.77
2024-03-25T05:36:55.140Z,98112.62
2024-03-25T05:39:22.170Z,98121.34
2024-03-25T05:41:49.467Z,98121.27
2024-03-25T05:44:16.199Z,98118.96
2024-03-25T05:46:43.237Z,98115.71
2024-03-25T05:49:09.973Z,98120.61
2024-03-25T05:51:36.961Z,98120.23
2024-03-25T05:54:03.888Z,98114.23
2024-03-25T05:56:31.329Z,98113.29
2024-03-25T05:59:03.751Z,98116.95
2024-03-25T06:01:30.504Z,98119.36
2024-03-25T06:03:56.925Z,98127.13
2024-03-25T06:06:24.076Z,98120.75
2024-03-25T06:08:51.384Z,98118.05
2024-03-25T06:11:20.545Z,98114.58
2024-03-25T06:13:47.961Z,98117.73
2024-03-25T06:16:14.974Z,98119.59
2024-03-25T06:18:41.783Z,98124.70
2024-03-25T06:21:08.348Z,98127.40
2024-03-25T06:23:34.883Z,98133.11
2024-03-25T06:26:03.411Z,98140.64
2024-03-25T06:28:30.306Z,98145.16
2024-03-25T06:31:16.028Z,98151.73
2024-03-25T06:34:01.379Z,98148.51
2024-03-25T06:36:27.991Z,98148.59
2024-03-25T06:38:54.536Z,98144.96
2024-03-25T06:41:21.519Z,98148.68
2024-03-25T06:43:48.182Z,98162.16
2024-03-25T06:46:15.635Z,98170.17
2024-03-25T06:48:42.007Z,98173.60
2024-03-25T06:51:08.722Z,98173.38
2024-03-25T06:53:36.170Z,98173.80
2024-03-25T06:56:03.534Z,98173.90
2024-03-25T06:58:31.346Z,98172.52
2024-03-25T07:01:04.531Z,98168.80
2024-03-25T07:03:31.257Z,98164.66
2024-03-25T07:06:00.022Z,98161.86
2024-03-25T07:08:28.316Z,98161.04
2024-03-25T07:10:55.102Z,98163.98
2024-03-25T07:13:22.184Z,98164.91
2024-03-25T07:15:50.229Z,98165.38
2024-03-25T07:18:17.760Z,98165.42
2024-03-25T07:20:44.613Z,98168.15
2024-03-25T07:23:11.678Z,98171.77
2024-03-25T07:25:38.644Z,98166.90
2024-03-25T07:28:06.015Z,98162.70
2024-03-25T07:30:32.962Z,98164.34
2024-03-25T07:32:59.807Z,98165.41
2024-03-25T07:35:26.976Z,98167.71
2024-03-25T07:37:53.548Z,98173.60
2024-03-25T07:40:20.964Z,98175.60
2024-03-25T07:42:49.964Z,98177.39
2024-03-25T07:45:16.698Z,98176.13
2024-03-25T07:47:43.299Z,98181.23
2024-03-25T07:50:10.078Z,98182.13
2024-03-25T07:52:41.044Z,98183.36
2024-03-25T07:55:08.660Z,98182.73
2024-03-25T07:57:37.039Z,98185.41
2024-03-25T08:00:09.567Z,98190.05
2024-03-25T08:02:42.229Z,98185.67
2024-03-25T08:05:09.282Z,98184.14
2024-03-25T08:07:35.922Z,98181.85
2024-03-25T08:10:04.529Z,98177.56
2024-03-25T08:12:31.866Z,98182.05
2024-03-25T08:14:58.703Z,98182.17
2024-03-25T08:17:25.404Z,98182.11
2024-03-25T08:19:52.127Z,98184.13
2024-03-25T08:22:20.269Z,98190.31
2024-03-25T08:24:47.269Z,98195.89
2024-03-25T08:27:13.862Z,98195.74
2024-03-25T08:29:40.832Z,98189.10
2024-03-25T08:32:07.689Z,98186.59
2024-03-25T08:34:34.375Z,98185.58
2024-03-25T08:37:08.976Z,98186.33
2024-03-25T08:39:35.626Z,98184.27
2024-03-25T08:42:02.478Z,98182.65
2024-03-25T08:44:54.928Z,98179.90
2024-03-25T08:47:21.772Z,98185.02
2024-03-25T08:49:48.270Z,98185.55
2024-03-25T08:52:15.100Z,98178.42
2024-03-25T08:54:42.974Z,98176.55
2024-03-25T08:57:10.682Z,98178.89
2024-03-25T08:59:37.641Z,98177.63
2024-03-25T09:02:05.330Z,98181.95
2024-03-25T09:04:33.259Z,98180.52
2024-03-25T09:07:00.107Z,98185.42
2024-03-25T09:09:45.676Z,98183.85
2024-03-25T09:12:12.455Z,98178.75
2024-03-25T09:14:39.386Z,98171.86
2024-03-25T09:17:06.772Z,98166.96
2024-03-25T09:19:33.790Z,98162.95
2024-03-25T09:22:00.543Z,98166.30
2024-03-25T09:24:28.006Z,98161.38
2024-03-25T09:26:55.111Z,98160.75
2024-03-25T09:29:21.960Z,98161.58
2024-03-25T09:31:48.950Z,98162.70
2024-03-25T09:34:17.234Z,98163.91
2024-03-25T09:36:43.907Z,98168.79
2024-03-25T09:39:10.571Z,98171.07
2024-03-25T09:41:37.386Z,98168.46
2024-03-25T09:44:05.901Z,98161.20
2024-03-25T09:46:38.748Z,98155.46
2024-03-25T09:49:06.060Z,98155.02
2024-03-25T09:51:33.082Z,98151.90
2024-03-25T09:53:59.778Z,98153.46
2024-03-25T09:56:26.948Z,98156.19
2024-03-25T09:58:56.747Z,98158.86
2024-03-25T10:01:30.155Z,98164.58
2024-03-25T10:03:56.776Z,98157.51
2024-03-25T10:06:23.754Z,98159.86
2024-03-25T10:08:54.318Z,98162.88
2024-03-25T10:11:21.047Z,98159.84
2024-03-25T10:13:48.928Z,98153.81
2024-03-25T10:16:16.600Z,98152.41
2024-03-25T10:18:43.293Z,98151.43
2024-03-25T10:21:11.026Z,98147.88
2024-03-25T10:23:42.809Z,98142.70
2024-03-25T10:26:09.591Z,98143.34
2024-03-25T10:28:36.484Z,98142.56
2024-03-25T10:31:04.660Z,98145.85
2024-03-25T10:33:31.743Z,98142.90
2024-03-25T10:35:58.606Z,98138.23
2024-03-25T10:38:25.421Z,98130.96
2024-03-25T10:40:52.619Z,98133.91
2024-03-25T10:43:19.353Z,98129.73
2024-03-25T10:45:47.321Z,98127.64
2024-03-25T10:48:29.021Z,98124.77
2024-03-25T10:50:56.308Z,98123.23
2024-03-25T10:53:25.287Z,98121.15
2024-03-25T10:55:54.776Z,98121.03
2024-03-25T10:58:24.597Z,98117.96
2024-03-25T11:00:52.509Z,98121.81
2024-03-25T11:03:19.257Z,98118.73
2024-03-25T11:05:46.030Z,98121.73
2024-03-25T11:08:15.891Z,98120.23
2024-03-25T11:10:48.647Z,98115.98
2024-03-25T11:13:18.796Z,98115.83
2024-03-25T11:15:48.273Z,98114.48
2024-03-25T11:18:19.196Z,98118.99
2024-03-25T11:20:45.922Z,98117.93
2024-03-25T11:23:15.294Z,98112.78
2024-03-25T11:25:42.756Z,98109.62
2024-03-25T11:28:12.730Z,98105.89
2024-03-25T11:30:41.919Z,98103.79
2024-03-25T11:33:09.251Z,98108.38
2024-03-25T11:35:39.319Z,98103.31
2024-03-25T11:38:05.961Z,98104.85
2024-03-25T11:40:32.751Z,98104.25
2024-03-25T11:42:59.325Z,98101.38
2024-03-25T11:45:26.015Z,98097.47
2024-03-25T11:47:52.651Z,98098.52
2024-03-25T11:50:20.173Z,98099.08
2024-03-25T11:52:47.164Z,98097.04
2024-03-25T11:55:17.906Z,98092.73
2024-03-25T11:57:44.717Z,98085.80
2024-03-25T12:00:14.603Z,98086.32
2024-03-25T12:02:46.539Z,98087.48
2024-03-25T12:05:17.655Z,98084.83
2024-03-25T12:07:44.732Z,98082.09
2024-03-25T12:10:30.297Z,98086.65
2024-03-25T12:12:58.144Z,98084.63
2024-03-25T12:15:27.955Z,98086.34
2024-03-25T12:17:54.919Z,98086.55
2024-03-25T12:20:23.885Z,98091.86
2024-03-25T12:22:51.320Z,98088.52
2024-03-25T12:25:19.623Z,98091.35
2024-03-25T12:27:46.761Z,98089.15
2024-03-25T12:30:13.865Z,98089.61
2024-03-25T12:32:44.461Z,98085.28
2024-03-25T12:35:12.775Z,98091.41
2024-03-25T12:37:44.148Z,98089.94
2024-03-25T12:40:11.671Z,98087.64
2024-03-25T12:42:39.608Z,98090.45
2024-03-25T12:45:09.373Z,98091.41
2024-03-25T12:47:36.235Z,98090.50
2024-03-25T12:50:03.279Z,98090.42
2024-03-25T12:59:12.326Z,98089.44
2024-03-25T13:01:41.210Z,98089.33
2024-03-25T13:04:08.126Z,98087.11
2024-03-25T13:06:34.900Z,98085.89
2024-03-25T13:09:01.621Z,98085.56
2024-03-25T13:11:28.566Z,98081.55
2024-03-25T13:13:55.578Z,98086.08
2024-03-25T13:16:22.159Z,98090.58
2024-03-25T13:18:49.995Z,98082.45
2024-03-25T13:21:16.612Z,98084.95
2024-03-25T13:23:43.424Z,98088.77
2024-03-25T13:26:09.912Z,98088.33
2024-03-25T13:28:36.584Z,98081.33
2024-03-25T13:31:05.371Z,98080.40
2024-03-25T13:33:31.876Z,98073.80
2024-03-25T13:35:58.634Z,98074.98
2024-03-25T13:38:25.580Z,98077.15
2024-03-25T13:40:52.122Z,98071.94
2024-03-25T13:43:18.803Z,98072.55
2024-03-25T13:45:49.032Z,98074.97
2024-03-25T13:48:16.008Z,98076.39
2024-03-25T13:50:43.260Z,98075.70
2024-03-25T13:53:14.580Z,98071.63
2024-03-25T13:55:42.499Z,98073.94
2024-03-25T13:58:09.094Z,98078.24
2024-03-25T14:00:36.980Z,98074.80
2024-03-25T14:03:04.599Z,98077.76
2024-03-25T14:05:31.674Z,98075.55
2024-03-25T14:07:58.310Z,98075.70
2024-03-25T14:10:25.026Z,98077.04
2024-03-25T14:12:51.659Z,98075.77
2024-03-25T14:15:19.077Z,98075.05
2024-03-25T14:17:46.088Z,98074.47
2024-03-25T14:20:12.687Z,98078.03
2024-03-25T14:22:39.362Z,98077.11
2024-03-25T14:25:06.712Z,98081.80
2024-03-25T14:27:33.636Z,98081.01
2024-03-25T14:30:00.366Z,98075.05
2024-03-25T14:32:26.932Z,98075.52
2024-03-25T14:34:53.558Z,98077.17
2024-03-25T14:37:21.270Z,98077.52
2024-03-25T14:39:47.905Z,98081.88
2024-03-25T14:42:15.002Z,98083.23
2024-03-25T14:44:41.589Z,98084.67
2024-03-25T14:47:08.259Z,98085.16
2024-03-25T14:49:35.009Z,98087.42
2024-03-25T14:52:04.567Z,98084.34
2024-03-25T14:54:34.829Z,98095.90
2024-03-25T14:57:01.726Z,98096.25
2024-03-25T14:59:29.231Z,98092.45
2024-03-25T15:01:59.698Z,98097.66
2024-03-25T15:04:27.226Z,98101.45
2024-03-25T15:06:53.968Z,98106.27
2024-03-25T15:09:20.590Z,98110.30
2024-03-25T15:11:47.394Z,98110.17
2024-03-25T15:14:14.000Z,98114.52
2024-03-25T15:16:40.556Z,98118.35
2024-03-25T15:19:08.919Z,98122.36
2024-03-25T15:21:37.189Z,98120.27
2024-03-25T15:24:04.373Z,98122.76
2024-03-25T15:26:31.185Z,98127.74
2024-03-25T15:28:57.843Z,98123.29
2024-03-25T15:31:24.388Z,98126.08
2024-03-25T15:33:51.276Z,98129.30
2024-03-25T15:36:17.871Z,98125.89
2024-03-25T15:38:45.311Z,98131.80
2024-03-25T15:41:13.014Z,98132.92
2024-03-25T15:43:39.658Z,98132.52
2024-03-25T15:46:07.801Z,98129.46
2024-03-25T15:48:36.273Z,98130.64
2024-03-25T15:51:03.086Z,98134.59
2024-03-25T15:53:29.975Z,98134.02
2024-03-25T15:55:59.027Z,98136.64
2024-03-25T15:58:25.672Z,98138.56
2024-03-25T16:00:52.390Z,98141.50
2024-03-25T16:03:19.128Z,98142.63
2024-03-25T16:05:45.764Z,98146.01
2024-03-25T16:08:12.837Z,98143.95
2024-03-25T16:10:39.722Z,98142.19
2024-03-25T16:13:06.396Z,98144.73
2024-03-25T16:15:33.041Z,98145.88
2024-03-25T16:17:59.653Z,98145.02
2024-03-25T16:20:30.626Z,98146.71
2024-03-25T16:22:57.752Z,98146.96
2024-03-25T16:25:24.822Z,98154.20
2024-03-25T16:27:51.861Z,98155.36
2024-03-25T16:30:18.984Z,98157.95
2024-03-25T16:32:45.766Z,98153.24
2024-03-25T16:35:13.035Z,98152.48
2024-03-25T16:37:39.573Z,98148.27
2024-03-25T16:40:07.184Z,98149.27
2024-03-25T16:42:34.028Z,98152.77
2024-03-25T16:45:01.336Z,98154.80
2024-03-25T16:47:28.510Z,98155.27
2024-03-25T16:49:55.468Z,98156.73
2024-03-25T16:52:22.569Z,98155.48
2024-03-25T16:54:50.429Z,98155.37
2024-03-25T16:57:17.351Z,98151.70
2024-03-25T16:59:44.161Z,98153.34
2024-03-25T17:02:11.140Z,98149.27
2024-03-25T17:04:38.279Z,98147.38
2024-03-25T17:07:06.094Z,98147.48
2024-03-25T17:09:34.273Z,98148.54
2024-03-25T17:12:01.185Z,98150.07
2024-03-25T17:14:28.237Z,98153.86
2024-03-25T17:17:01.063Z,98151.77
2024-03-25T17:19:28.171Z,98150.54
2024-03-25T17:21:55.177Z,98151.91
2024-03-25T17:24:22.724Z,98149.48
2024-03-25T17:26:49.585Z,98150.67
2024-03-25T17:29:16.499Z,98153.20
2024-03-25T17:31:45.065Z,98150.87
2024-03-25T17:34:11.843Z,98146.64
2024-03-25T17:36:38.696Z,98148.24
2024-03-25T17:39:05.514Z,98148.88
2024-03-25T17:41:35.779Z,98150.67
2024-03-25T17:44:04.733Z,98152.08
2024-03-25T17:46:32.916Z,98155.27
2024-03-25T17:48:59.762Z,98152.98
2024-03-25T17:51:27.250Z,98152.56
2024-03-25T17:53:54.064Z,98150.39
2024-03-25T17:56:21.050Z,98147.77
2024-03-25T17:58:47.849Z,98142.36
2024-03-25T18:01:14.919Z,98140.41
2024-03-25T18:03:41.835Z,98146.68
2024-03-25T18:06:08.795Z,98143.06
2024-03-25T18:08:36.111Z,98143.39
2024-03-25T18:11:03.710Z,98138.58
2024-03-25T18:13:31.751Z,98150.19
2024-03-25T18:15:58.608Z,98151.77
2024-03-25T18:18:25.515Z,98154.63
2024-03-25T18:20:52.394Z,98153.50
2024-03-25T18:23:19.405Z,98153.06
2024-03-25T18:25:46.308Z,98155.92
2024-03-25T18:28:13.644Z,98156.23
2024-03-25T18:30:40.513Z,98158.27
2024-03-25T18:33:07.525Z,98159.17
2024-03-25T18:35:38.856Z,98161.15
2024-03-25T18:38:07.372Z,98159.60
2024-03-25T18:40:35.326Z,98162.98
2024-03-25T18:43:02.152Z,98160.45
2024-03-25T18:45:29.249Z,98159.38
2024-03-25T18:47:56.154Z,98157.98
2024-03-25T18:50:23.106Z,98161.33
2024-03-25T18:52:50.792Z,98160.92
2024-03-25T18:55:17.756Z,98155.98
2024-03-25T18:57:44.535Z,98158.63
2024-03-25T19:00:12.301Z,98156.76
2024-03-25T19:02:39.356Z,98156.45
2024-03-25T19:05:07.977Z,98157.30
2024-03-25T19:07:35.021Z,98157.09
2024-03-25T19:10:02.225Z,98157.41
2024-03-25T19:12:29.672Z,98161.95
2024-03-25T19:14:56.561Z,98163.45
2024-03-25T19:17:23.348Z,98167.92
2024-03-25T19:19:50.310Z,98160.09
2024-03-25T19:22:17.088Z,98161.69
2024-03-25T19:24:44.454Z,98166.16
2024-03-25T19:27:12.084Z,98161.80
2024-03-25T19:29:38.862Z,98161.56
2024-03-25T19:32:06.312Z,98162.70
2024-03-25T19:34:33.136Z,98160.17
2024-03-25T19:36:59.963Z,98165.48
2024-03-25T19:39:29.609Z,98166.45
2024-03-25T19:41:56.514Z,98165.60
2024-03-25T19:44:24.135Z,98168.39
2024-03-25T19:46:50.922Z,98171.61
2024-03-25T19:49:17.759Z,98172.11
2024-03-25T19:51:44.572Z,98175.18
2024-03-25T19:54:11.328Z,98171.02
2024-03-25T19:56:38.173Z,98172.92
2024-03-25T19:59:05.014Z,98169.52
2024-03-25T20:01:31.953Z,98167.40
2024-03-25T20:03:59.936Z,98162.80
2024-03-25T20:06:26.797Z,98166.27
2024-03-25T20:08:53.605Z,98169.09
2024-03-25T20:11:20.493Z,98170.04
2024-03-25T20:13:47.622Z,98167.85
2024-03-25T20:16:15.948Z,98168.46
2024-03-25T20:18:42.864Z,98169.00
2024-03-25T20:21:09.782Z,98167.98
2024-03-25T20:23:36.741Z,98170.04
2024-03-25T20:26:03.929Z,98171.77
2024-03-25T20:28:32.841Z,98172.54
2024-03-25T20:30:59.774Z,98172.37
2024-03-25T20:33:26.647Z,98171.83
2024-03-25T20:35:53.401Z,98169.44
2024-03-25T20:38:20.108Z,98172.11
2024-03-25T20:40:46.999Z,98171.00
2024-03-25T20:43:14.588Z,98176.33
2024-03-25T20:45:42.813Z,98179.36
2024-03-25T20:48:09.882Z,98182.08
2024-03-25T20:50:36.790Z,98182.96
2024-03-25T20:53:04.185Z,98184.83
2024-03-25T20:55:32.954Z,98184.66
2024-03-25T20:57:59.972Z,98183.07
2024-03-25T21:00:26.962Z,98184.86
2024-03-25T21:02:53.770Z,98188.13
2024-03-25T21:05:20.532Z,98188.52
2024-03-25T21:07:47.735Z,98190.72
2024-03-25T21:10:14.954Z,98194.58
2024-03-25T21:12:41.913Z,98192.48
2024-03-25T21:15:10.128Z,98194.80
2024-03-25T21:17:37.784Z,98185.09
2024-03-25T21:20:06.834Z,98186.14
2024-03-25T21:22:33.725Z,98187.29
2024-03-25T21:25:00.460Z,98183.36
2024-03-25T21:27:27.226Z,98185.04
2024-03-25T21:29:54.033Z,98181.56
2024-03-25T21:32:20.889Z,98188.36
2024-03-25T21:34:48.456Z,98190.92
2024-03-25T21:37:15.317Z,98193.73
2024-03-25T21:39:42.107Z,98196.84
2024-03-25T21:42:08.973Z,98197.75
2024-03-25T21:44:35.791Z,98200.38
2024-03-25T21:47:05.461Z,98203.55
2024-03-25T21:49:33.415Z,98209.21
2024-03-25T21:52:00.229Z,98206.51
2024-03-25T21:54:27.621Z,98208.46
2024-03-25T21:56:54.508Z,98210.14
2024-03-25T21:59:21.283Z,98206.51
2024-03-25T22:01:48.048Z,98203.14
2024-03-25T22:04:14.749Z,98202.81
2024-03-25T22:06:41.373Z,98206.23
2024-03-25T22:09:09.028Z,98206.61
2024-03-25T22:11:36.103Z,98206.48
2024-03-25T22:14:03.116Z,98205.57
2024-03-25T22:16:30.096Z,98206.04
2024-03-25T22:18:56.746Z,98208.80
2024-03-25T22:21:23.355Z,98209.58
2024-03-25T22:23:50.085Z,98210.62
2024-03-25T22:26:16.826Z,98206.05
2024-03-25T22:28:43.680Z,98209.45
2024-03-25T22:31:10.410Z,98215.38
2024-03-25T22:33:37.073Z,98218.96
2024-03-25T22:36:04.466Z,98221.34
2024-03-25T22:38:31.360Z,98224.58
2024-03-25T22:41:01.067Z,98229.48
2024-03-25T22:43:28.245Z,98234.12
2024-03-25T22:45:55.857Z,98235.73
2024-03-25T22:48:22.647Z,98236.33
2024-03-25T22:50:59.878Z,98234.73
2024-03-25T22:53:26.726Z,98229.78
2024-03-25T22:55:58.309Z,98230.92
2024-03-25T22:58:25.557Z,98224.86
2024-03-25T23:00:52.294Z,98222.30
2024-03-25T23:03:19.438Z,98217.17
2024-03-25T23:05:55.994Z,98214.61
2024-03-25T23:08:23.998Z,98217.98
2024-03-25T23:10:50.795Z,98221.97
2024-03-25T23:13:17.645Z,98223.89
2024-03-25T23:15:44.581Z,98227.69
2024-03-25T23:18:11.354Z,98230.98
2024-03-25T23:20:42.541Z,98228.08
2024-03-25T23:23:11.759Z,98230.39
2024-03-25T23:25:38.993Z,98230.66
2024-03-25T23:28:08.972Z,98229.95
2024-03-25T23:30:37.082Z,98227.16
2024-03-25T23:33:04.283Z,98227.33
2024-03-25T23:35:37.269Z,98226.77
2024-03-25T23:38:04.400Z,98230.66
2024-03-25T23:40:31.240Z,98231.44
2024-03-25T23:42:57.972Z,98231.32
2024-03-25T23:45:24.649Z,98232.36
2024-03-25T23:47:51.360Z,98233.30
2024-03-25T23:50:18.231Z,98232.68
2024-03-25T23:52:45.258Z,98231.05
2024-03-25T23:55:12.023Z,98230.96
2024-03-25T23:57:38.771Z,98232.36
